Time;durP1;ratioP1;P1;durP2;ratioP2;P2;SDS_P1;SDS_P2;PMS_P1;PMS_P2;Temp;Humidity;BMP_temperature;BMP_pressure;BME280_temperature;BME280_humidity;BME280_pressure;Samples;Min_cycle;Max_cycle;Signal;HPM_P1;HPM_P2
2023/06/23 00:00:32;;;;;;;;;;;18.10;99.90;;;;;;5066445;28;20333;-41
2023/06/23 00:02:58;;;;;;;;;;;18.10;99.90;;;;;;5059348;28;19924;-41
2023/06/23 00:05:27;;;;;;;;;;;18.10;99.90;;;;;;5054269;28;19985;-41
2023/06/23 00:07:54;;;;;;;;;;;18.00;99.90;;;;;;5072505;28;19928;-41
2023/06/23 00:10:21;;;;;;;;;;;18.00;99.90;;;;;;5072148;28;19951;-42
2023/06/23 00:12:48;;;;;;;;;;;18.00;99.90;;;;;;5053226;28;20380;-41
2023/06/23 00:15:15;;;;;;;;;;;18.00;99.90;;;;;;5074431;28;19924;-42
2023/06/23 00:17:41;;;;;;;;;;;18.00;99.90;;;;;;5061973;28;19931;-42
2023/06/23 00:20:10;;;;;;;;;;;18.00;99.90;;;;;;5065077;28;20380;-42
2023/06/23 00:22:38;;;;;;;;;;;18.00;99.90;;;;;;5041756;28;19990;-42
2023/06/23 00:25:05;;;;;;;;;;;18.00;99.90;;;;;;5061104;28;19933;-42
2023/06/23 00:27:32;;;;;;;;;;;18.00;99.90;;;;;;5058922;28;19936;-41
2023/06/23 00:29:58;;;;;;;;;;;18.00;99.90;;;;;;5079541;28;19924;-42
2023/06/23 00:32:25;;;;;;;;;;;18.00;99.90;;;;;;5078288;28;20267;-43
2023/06/23 00:34:52;;;;;;;;;;;18.00;99.90;;;;;;5056358;28;19977;-39
2023/06/23 00:37:18;;;;;;;;;;;18.00;99.90;;;;;;5076055;28;19928;-42
2023/06/23 00:39:46;;;;;;;;;;;18.00;99.90;;;;;;5072349;28;19986;-43
2023/06/23 00:42:13;;;;;;;;;;;18.00;99.90;;;;;;5078118;28;20425;-42
2023/06/23 00:44:40;;;;;;;;;;;18.00;99.90;;;;;;5059491;28;19925;-40
2023/06/23 00:47:08;;;;;;;;;;;18.00;99.90;;;;;;5080786;28;21707;-42
2023/06/23 00:49:35;;;;;;;;;;;18.00;99.90;;;;;;5053456;28;19963;-42
2023/06/23 00:52:02;;;;;;;;;;;18.00;99.90;;;;;;5056867;28;20371;-42
2023/06/23 00:54:29;;;;;;;;;;;18.00;99.90;;;;;;5082443;28;19925;-42
2023/06/23 00:56:58;;;;;;;;;;;17.90;99.90;;;;;;5056556;28;19931;-42
2023/06/23 00:59:28;;;;;;;;;;;18.00;99.90;;;;;;5074176;28;20319;-41
2023/06/23 01:01:57;;;;;;;;;;;17.90;99.90;;;;;;5060068;28;19931;-42
2023/06/23 01:04:23;;;;;;;;;;;17.90;99.90;;;;;;5076344;28;19924;-42
2023/06/23 01:06:52;;;;;;;;;;;17.90;99.90;;;;;;5059689;28;19931;-42
2023/06/23 01:09:21;;;;;;;;;;;17.90;99.90;;;;;;5078824;28;19924;-41
2023/06/23 01:11:49;;;;;;;;;;;17.90;99.90;;;;;;5072877;28;19931;-42
2023/06/23 01:14:19;;;;;;;;;;;17.90;99.90;;;;;;5053945;28;19974;-40
2023/06/23 01:16:47;;;;;;;;;;;17.90;99.90;;;;;;5070474;28;19924;-40
2023/06/23 01:19:17;;;;;;;;;;;17.90;99.90;;;;;;5053175;28;19932;-42
2023/06/23 01:21:46;;;;;;;;;;;17.80;99.90;;;;;;5042231;28;19933;-42
2023/06/23 01:24:16;;;;;;;;;;;17.80;99.90;;;;;;5070741;28;19989;-42
2023/06/23 01:26:50;;;;;;;;;;;17.80;99.90;;;;;;5064117;28;19970;-42
2023/06/23 01:29:18;;;;;;;;;;;17.80;99.90;;;;;;5052824;28;19978;-39
2023/06/23 01:31:47;;;;;;;;;;;17.80;99.90;;;;;;5053297;28;19990;-40
2023/06/23 01:34:17;;;;;;;;;;;17.80;99.90;;;;;;5060939;28;20017;-41
2023/06/23 01:36:44;;;;;;;;;;;17.80;99.90;;;;;;5034627;28;19925;-42
2023/06/23 01:39:12;;;;;;;;;;;17.80;99.90;;;;;;5071338;28;20023;-41
2023/06/23 01:41:39;;;;;;;;;;;17.80;99.90;;;;;;5058952;28;19999;-41
2023/06/23 01:44:06;;;;;;;;;;;17.80;99.90;;;;;;5053397;28;19924;-41
2023/06/23 01:46:35;;;;;;;;;;;17.80;99.90;;;;;;5050357;28;19925;-42
2023/06/23 01:49:03;;;;;;;;;;;17.70;99.90;;;;;;5065625;28;19928;-41
2023/06/23 01:51:30;;;;;;;;;;;17.80;99.90;;;;;;5063118;28;19971;-42
2023/06/23 01:53:56;;;;;;;;;;;17.70;99.90;;;;;;5051041;28;19929;-42
2023/06/23 01:56:23;;;;;;;;;;;17.70;99.90;;;;;;5052516;28;20388;-40
2023/06/23 01:58:50;;;;;;;;;;;17.70;99.90;;;;;;5058069;28;19925;-41
2023/06/23 02:01:16;;;;;;;;;;;17.70;99.90;;;;;;5050898;28;20353;-38
2023/06/23 02:03:44;;;;;;;;;;;17.70;99.90;;;;;;5073035;28;20368;-41
2023/06/23 02:06:11;;;;;;;;;;;17.70;99.90;;;;;;5055466;28;19990;-40
2023/06/23 02:08:39;;;;;;;;;;;17.60;99.90;;;;;;5077746;28;19931;-42
2023/06/23 02:11:05;;;;;;;;;;;17.60;99.90;;;;;;5083121;28;19935;-41
2023/06/23 02:13:32;;;;;;;;;;;17.60;99.90;;;;;;5082106;28;19973;-42
2023/06/23 02:15:59;;;;;;;;;;;17.60;99.90;;;;;;5063240;28;19928;-39
2023/06/23 02:18:25;;;;;;;;;;;17.60;99.90;;;;;;5053617;28;20372;-42
2023/06/23 02:20:53;;;;;;;;;;;17.60;99.90;;;;;;5060732;28;20009;-40
2023/06/23 02:23:20;;;;;;;;;;;17.60;99.90;;;;;;5055935;28;20364;-42
2023/06/23 02:25:47;;;;;;;;;;;17.60;99.90;;;;;;5072802;28;19939;-41
2023/06/23 02:28:13;;;;;;;;;;;17.50;99.90;;;;;;5053010;28;20465;-42
2023/06/23 02:30:40;;;;;;;;;;;17.50;99.90;;;;;;5038090;28;19970;-40
2023/06/23 02:33:07;;;;;;;;;;;17.50;99.90;;;;;;5056681;28;19977;-42
2023/06/23 02:35:34;;;;;;;;;;;17.50;99.90;;;;;;5055383;28;19928;-41
2023/06/23 02:38:03;;;;;;;;;;;17.50;99.90;;;;;;5054437;28;20019;-42
2023/06/23 02:40:30;;;;;;;;;;;17.50;99.90;;;;;;5051430;28;19931;-41
2023/06/23 02:42:59;;;;;;;;;;;17.50;99.90;;;;;;5087796;28;20003;-41
2023/06/23 02:45:26;;;;;;;;;;;17.50;99.90;;;;;;5081918;28;20013;-42
2023/06/23 02:47:53;;;;;;;;;;;17.40;99.90;;;;;;5079058;28;19935;-41
2023/06/23 02:50:21;;;;;;;;;;;17.40;99.90;;;;;;5082280;28;19956;-41
2023/06/23 02:52:48;;;;;;;;;;;17.40;99.90;;;;;;5074833;28;19924;-42
2023/06/23 02:55:17;;;;;;;;;;;17.40;99.90;;;;;;5072608;28;20303;-41
2023/06/23 02:57:44;;;;;;;;;;;17.40;99.90;;;;;;5072913;28;19978;-41
2023/06/23 03:00:17;;;;;;;;;;;17.40;99.90;;;;;;5061178;28;20299;-42
2023/06/23 03:02:43;;;;;;;;;;;17.40;99.90;;;;;;5057419;28;19936;-41
2023/06/23 03:05:10;;;;;;;;;;;17.40;99.90;;;;;;5071286;28;19924;-41
2023/06/23 03:07:38;;;;;;;;;;;17.40;99.90;;;;;;5081076;28;20015;-41
2023/06/23 03:10:05;;;;;;;;;;;17.30;99.90;;;;;;5072939;28;20394;-40
2023/06/23 03:12:33;;;;;;;;;;;17.30;99.90;;;;;;5073348;28;20281;-41
2023/06/23 03:15:00;;;;;;;;;;;17.30;99.90;;;;;;5073274;28;20008;-41
2023/06/23 03:17:27;;;;;;;;;;;17.30;99.90;;;;;;5072831;28;19928;-40
2023/06/23 03:19:54;;;;;;;;;;;17.30;99.90;;;;;;5072553;28;19924;-41
2023/06/23 03:22:23;;;;;;;;;;;17.30;99.90;;;;;;5079959;28;19971;-41
2023/06/23 03:24:51;;;;;;;;;;;17.30;99.90;;;;;;5054409;28;19975;-41
2023/06/23 03:27:17;;;;;;;;;;;17.30;99.90;;;;;;5054493;28;19928;-40
2023/06/23 03:29:47;;;;;;;;;;;17.30;99.90;;;;;;5072541;28;19925;-41
2023/06/23 03:32:15;;;;;;;;;;;17.30;99.90;;;;;;5058762;28;20295;-41
2023/06/23 03:34:44;;;;;;;;;;;17.20;99.90;;;;;;5068169;28;19936;-41
2023/06/23 03:37:12;;;;;;;;;;;17.20;99.90;;;;;;5091034;28;19924;-41
2023/06/23 03:39:40;;;;;;;;;;;17.30;99.90;;;;;;5072883;28;19928;-41
2023/06/23 03:42:07;;;;;;;;;;;17.20;99.90;;;;;;5054406;28;19928;-41
2023/06/23 03:44:34;;;;;;;;;;;17.20;99.90;;;;;;5073011;28;19935;-41
2023/06/23 03:47:03;;;;;;;;;;;17.20;99.90;;;;;;5087033;28;19974;-41
2023/06/23 03:49:31;;;;;;;;;;;17.20;99.90;;;;;;5072945;28;19964;-41
2023/06/23 03:51:58;;;;;;;;;;;17.20;99.90;;;;;;5054966;28;20365;-41
2023/06/23 03:54:25;;;;;;;;;;;17.20;99.90;;;;;;5071817;28;19970;-42
2023/06/23 03:56:52;;;;;;;;;;;17.20;99.90;;;;;;5071750;28;20386;-41
2023/06/23 03:59:18;;;;;;;;;;;17.10;99.90;;;;;;5066975;28;20029;-40
2023/06/23 04:01:45;;;;;;;;;;;17.20;99.90;;;;;;5079112;28;19927;-40
2023/06/23 04:04:13;;;;;;;;;;;17.10;99.90;;;;;;5052352;28;20026;-42
2023/06/23 04:06:40;;;;;;;;;;;17.20;99.90;;;;;;5054723;28;19932;-39
2023/06/23 04:09:06;;;;;;;;;;;17.10;99.90;;;;;;5081451;28;19924;-40
2023/06/23 04:11:33;;;;;;;;;;;17.10;99.90;;;;;;5054045;28;19985;-41
2023/06/23 04:14:00;;;;;;;;;;;17.10;99.90;;;;;;5072456;28;19924;-41
2023/06/23 04:16:26;;;;;;;;;;;17.10;99.90;;;;;;5071627;28;19929;-41
2023/06/23 04:18:53;;;;;;;;;;;17.10;99.90;;;;;;5071762;28;19943;-41
2023/06/23 04:21:21;;;;;;;;;;;17.10;99.90;;;;;;5053414;28;19925;-40
2023/06/23 04:23:48;;;;;;;;;;;17.10;99.90;;;;;;5072083;28;19931;-41
2023/06/23 04:26:15;;;;;;;;;;;17.10;99.90;;;;;;5072198;28;19975;-41
2023/06/23 04:28:42;;;;;;;;;;;17.10;99.90;;;;;;5071580;28;20343;-40
2023/06/23 04:31:09;;;;;;;;;;;17.10;99.90;;;;;;5053882;28;20376;-41
2023/06/23 04:33:36;;;;;;;;;;;17.20;99.90;;;;;;5053800;28;20366;-41
2023/06/23 04:36:04;;;;;;;;;;;17.10;99.90;;;;;;5053852;28;19933;-41
2023/06/23 04:38:32;;;;;;;;;;;17.20;99.90;;;;;;5070755;28;19925;-39
2023/06/23 04:40:59;;;;;;;;;;;17.20;99.90;;;;;;5053535;28;19933;-41
2023/06/23 04:43:26;;;;;;;;;;;17.20;99.90;;;;;;5053824;28;19924;-41
2023/06/23 04:45:54;;;;;;;;;;;17.20;99.90;;;;;;5053111;28;20013;-40
2023/06/23 04:48:22;;;;;;;;;;;17.20;99.90;;;;;;5071169;28;20013;-41
2023/06/23 04:50:49;;;;;;;;;;;17.20;99.90;;;;;;5071586;28;19925;-37
2023/06/23 04:53:17;;;;;;;;;;;17.20;99.90;;;;;;5071431;28;19928;-41
2023/06/23 04:55:46;;;;;;;;;;;17.20;99.90;;;;;;5071834;28;20348;-41
2023/06/23 04:58:13;;;;;;;;;;;17.30;99.90;;;;;;5062269;28;19924;-41
2023/06/23 05:00:40;;;;;;;;;;;17.30;99.90;;;;;;5071036;28;19924;-41
2023/06/23 05:03:06;;;;;;;;;;;17.30;99.90;;;;;;5040640;28;19929;-36
2023/06/23 05:05:33;;;;;;;;;;;17.30;99.90;;;;;;5071812;28;19924;-42
2023/06/23 05:08:00;;;;;;;;;;;17.30;99.90;;;;;;5068257;28;19925;-41
2023/06/23 05:10:28;;;;;;;;;;;17.30;99.90;;;;;;5060994;28;19929;-41
2023/06/23 05:12:57;;;;;;;;;;;17.30;99.90;;;;;;5067767;28;19936;-39
2023/06/23 05:15:24;;;;;;;;;;;17.20;99.90;;;;;;5086386;28;19936;-40
2023/06/23 05:17:50;;;;;;;;;;;17.30;99.90;;;;;;5090123;28;19970;-41
2023/06/23 05:20:17;;;;;;;;;;;17.30;99.90;;;;;;5058913;28;19932;-37
2023/06/23 05:22:45;;;;;;;;;;;17.30;99.90;;;;;;5078882;28;19933;-41
2023/06/23 05:25:12;;;;;;;;;;;17.30;99.90;;;;;;5074222;28;20373;-41
2023/06/23 05:27:39;;;;;;;;;;;17.40;99.90;;;;;;5072822;28;19935;-40
2023/06/23 05:30:07;;;;;;;;;;;17.40;99.90;;;;;;5073610;28;19971;-41
2023/06/23 05:32:34;;;;;;;;;;;17.40;99.90;;;;;;5057026;28;19936;-41
2023/06/23 05:35:02;;;;;;;;;;;17.40;99.90;;;;;;5074711;28;19946;-41
2023/06/23 05:37:28;;;;;;;;;;;17.50;99.90;;;;;;5068222;28;19925;-40
2023/06/23 05:39:55;;;;;;;;;;;17.50;99.90;;;;;;5077045;28;19978;-41
2023/06/23 05:42:22;;;;;;;;;;;17.50;99.90;;;;;;5085552;28;19925;-40
2023/06/23 05:44:48;;;;;;;;;;;17.50;99.90;;;;;;5075438;28;19978;-42
2023/06/23 05:47:18;;;;;;;;;;;17.50;99.90;;;;;;5074440;28;20041;-40
2023/06/23 05:49:45;;;;;;;;;;;17.40;99.90;;;;;;5072940;28;19931;-42
2023/06/23 05:52:13;;;;;;;;;;;17.50;99.90;;;;;;5074204;28;19958;-41
2023/06/23 05:54:40;;;;;;;;;;;17.50;99.90;;;;;;5056447;28;20118;-40
2023/06/23 05:57:07;;;;;;;;;;;17.40;99.90;;;;;;5011207;22;20344;-40
2023/06/23 05:59:36;;;;;;;;;;;17.50;99.90;;;;;;5034982;28;19925;-41
2023/06/23 06:02:03;;;;;;;;;;;17.60;99.90;;;;;;5051145;28;20380;-41
2023/06/23 06:04:32;;;;;;;;;;;17.70;99.90;;;;;;5044624;28;19932;-40
2023/06/23 06:06:59;;;;;;;;;;;17.80;99.90;;;;;;5038914;28;20307;-41
2023/06/23 06:09:27;;;;;;;;;;;17.90;99.90;;;;;;5033652;28;19982;-41
2023/06/23 06:11:54;;;;;;;;;;;18.10;99.90;;;;;;5044613;28;19925;-39
2023/06/23 06:14:20;;;;;;;;;;;18.20;99.90;;;;;;5052421;28;19925;-40
2023/06/23 06:16:47;;;;;;;;;;;18.40;99.90;;;;;;5034717;28;19929;-41
2023/06/23 06:19:14;;;;;;;;;;;18.50;99.90;;;;;;5051276;28;19975;-40
2023/06/23 06:21:42;;;;;;;;;;;18.60;99.90;;;;;;5024165;28;20445;-39
2023/06/23 06:24:09;;;;;;;;;;;18.70;99.90;;;;;;5052722;28;20415;-40
2023/06/23 06:26:36;;;;;;;;;;;18.80;99.90;;;;;;5032565;28;19931;-40
2023/06/23 06:29:05;;;;;;;;;;;19.00;99.90;;;;;;5056765;28;19932;-41
2023/06/23 06:31:31;;;;;;;;;;;19.10;99.90;;;;;;5050917;28;19970;-40
2023/06/23 06:33:58;;;;;;;;;;;19.20;99.90;;;;;;5033354;28;19925;-40
2023/06/23 06:36:25;;;;;;;;;;;19.30;99.90;;;;;;5048104;28;19924;-40
2023/06/23 06:38:53;;;;;;;;;;;19.50;99.90;;;;;;5037908;28;19925;-39
2023/06/23 06:41:19;;;;;;;;;;;19.60;99.90;;;;;;5027646;28;19925;-40
2023/06/23 06:43:47;;;;;;;;;;;19.60;99.90;;;;;;5050386;28;19929;-40
2023/06/23 06:46:14;;;;;;;;;;;19.80;99.90;;;;;;5032841;28;19970;-38
2023/06/23 06:48:40;;;;;;;;;;;19.90;99.90;;;;;;5051753;28;19925;-39
2023/06/23 06:51:07;;;;;;;;;;;20.00;99.90;;;;;;5033093;28;19937;-40
2023/06/23 06:53:34;;;;;;;;;;;20.20;99.90;;;;;;5051563;28;20381;-41
2023/06/23 06:56:02;;;;;;;;;;;20.30;99.90;;;;;;5049680;28;20265;-41
2023/06/23 06:58:29;;;;;;;;;;;20.40;99.90;;;;;;5046123;28;19925;-39
2023/06/23 07:00:55;;;;;;;;;;;20.60;99.90;;;;;;5049453;28;19929;-39
2023/06/23 07:03:22;;;;;;;;;;;20.70;99.90;;;;;;5034562;28;19925;-40
2023/06/23 07:05:49;;;;;;;;;;;20.80;99.90;;;;;;5034371;28;19933;-40
2023/06/23 07:08:15;;;;;;;;;;;20.90;99.90;;;;;;5050354;28;19925;-40
2023/06/23 07:10:42;;;;;;;;;;;21.00;99.90;;;;;;5033478;28;20434;-40
2023/06/23 07:13:10;;;;;;;;;;;21.10;99.90;;;;;;5050513;28;20293;-41
2023/06/23 07:15:37;;;;;;;;;;;21.30;99.90;;;;;;5050530;28;19924;-41
2023/06/23 07:18:03;;;;;;;;;;;21.40;99.90;;;;;;5033629;28;19929;-41
2023/06/23 07:20:30;;;;;;;;;;;21.50;99.90;;;;;;5045738;28;20011;-40
2023/06/23 07:23:00;;;;;;;;;;;21.60;99.90;;;;;;5039665;28;19936;-40
2023/06/23 07:25:26;;;;;;;;;;;21.80;99.90;;;;;;5034880;28;19928;-41
2023/06/23 07:27:53;;;;;;;;;;;21.80;99.90;;;;;;5028328;28;20037;-38
2023/06/23 07:30:21;;;;;;;;;;;21.90;99.90;;;;;;5052040;28;20030;-41
2023/06/23 07:32:49;;;;;;;;;;;22.00;99.90;;;;;;5021132;28;19931;-40
2023/06/23 07:35:15;;;;;;;;;;;22.10;99.90;;;;;;5050079;28;19933;-40
2023/06/23 07:37:42;;;;;;;;;;;22.20;99.90;;;;;;5032979;28;19924;-40
2023/06/23 07:40:09;;;;;;;;;;;22.40;99.90;;;;;;5046222;28;20300;-39
2023/06/23 07:42:36;;;;;;;;;;;22.60;99.90;;;;;;5049588;28;19999;-41
2023/06/23 07:45:03;;;;;;;;;;;22.70;99.90;;;;;;5047975;28;20445;-41
2023/06/23 07:47:31;;;;;;;;;;;22.80;99.90;;;;;;5048554;28;20434;-38
2023/06/23 07:49:57;;;;;;;;;;;22.90;99.90;;;;;;5037353;28;19925;-40
2023/06/23 07:52:24;;;;;;;;;;;23.00;99.90;;;;;;5047004;28;19943;-40
2023/06/23 07:54:51;;;;;;;;;;;23.10;99.90;;;;;;5042214;28;19925;-41
2023/06/23 07:57:19;;;;;;;;;;;23.30;99.90;;;;;;5050658;28;20356;-40
2023/06/23 07:59:46;;;;;;;;;;;23.40;99.90;;;;;;5051166;28;20034;-40
2023/06/23 08:02:13;;;;;;;;;;;23.50;99.90;;;;;;5049865;28;20015;-41
2023/06/23 08:04:41;;;;;;;;;;;23.60;99.90;;;;;;5050285;28;19932;-40
2023/06/23 08:07:07;;;;;;;;;;;23.70;99.90;;;;;;5049936;28;20365;-41
2023/06/23 08:09:34;;;;;;;;;;;23.90;99.90;;;;;;5051113;28;19932;-41
2023/06/23 08:12:01;;;;;;;;;;;24.10;99.90;;;;;;5051010;28;19925;-41
2023/06/23 08:14:27;;;;;;;;;;;24.20;99.90;;;;;;5050814;28;19970;-40
2023/06/23 08:16:54;;;;;;;;;;;24.30;99.90;;;;;;5033228;28;19968;-41
2023/06/23 08:19:22;;;;;;;;;;;24.40;99.90;;;;;;5049456;28;20368;-40
2023/06/23 08:21:50;;;;;;;;;;;24.50;99.90;;;;;;5050771;28;20372;-41
2023/06/23 08:24:17;;;;;;;;;;;24.60;99.90;;;;;;5050853;28;20049;-40
2023/06/23 08:26:44;;;;;;;;;;;24.70;99.90;;;;;;5033031;28;19925;-39
2023/06/23 08:29:11;;;;;;;;;;;24.90;99.90;;;;;;5050470;28;19979;-40
2023/06/23 08:31:38;;;;;;;;;;;24.90;98.20;;;;;;5050259;28;19947;-40
2023/06/23 08:34:04;;;;;;;;;;;25.00;99.40;;;;;;5050487;28;19925;-39
2023/06/23 08:36:31;;;;;;;;;;;25.10;99.90;;;;;;5050568;28;19925;-41
2023/06/23 08:38:59;;;;;;;;;;;25.30;99.90;;;;;;5050637;28;19990;-41
2023/06/23 08:41:26;;;;;;;;;;;25.50;98.60;;;;;;5050351;28;19929;-41
2023/06/23 08:43:52;;;;;;;;;;;25.50;97.70;;;;;;5050043;28;19932;-39
2023/06/23 08:46:19;;;;;;;;;;;25.60;98.10;;;;;;5032633;28;19975;-41
2023/06/23 08:48:46;;;;;;;;;;;25.70;97.00;;;;;;5049956;28;20270;-41
2023/06/23 08:51:13;;;;;;;;;;;25.70;97.60;;;;;;5032785;28;20206;-42
2023/06/23 08:53:40;;;;;;;;;;;25.80;97.50;;;;;;5049641;28;20403;-40
2023/06/23 08:56:08;;;;;;;;;;;25.90;97.50;;;;;;5031879;28;20373;-42
2023/06/23 08:58:35;;;;;;;;;;;26.10;95.70;;;;;;5050227;28;19924;-41
2023/06/23 09:01:01;;;;;;;;;;;26.10;96.40;;;;;;5049947;28;19931;-41
2023/06/23 09:03:28;;;;;;;;;;;26.20;96.50;;;;;;5031906;28;20402;-39
2023/06/23 09:05:55;;;;;;;;;;;26.30;95.60;;;;;;5050361;28;19971;-41
2023/06/23 09:08:21;;;;;;;;;;;26.40;96.00;;;;;;5050247;28;19979;-41
2023/06/23 09:10:48;;;;;;;;;;;26.50;97.20;;;;;;5049557;28;19945;-41
2023/06/23 09:13:19;;;;;;;;;;;26.70;96.50;;;;;;5049218;28;20013;-43
2023/06/23 09:15:46;;;;;;;;;;;26.80;94.90;;;;;;5050175;28;19925;-40
2023/06/23 09:18:13;;;;;;;;;;;26.90;95.20;;;;;;5032563;28;19924;-41
2023/06/23 09:20:40;;;;;;;;;;;26.90;92.60;;;;;;5050127;28;19975;-41
2023/06/23 09:23:06;;;;;;;;;;;27.00;94.50;;;;;;5032823;28;19929;-41
2023/06/23 09:25:39;;;;;;;;;;;27.00;95.20;;;;;;5048833;28;19924;-41
2023/06/23 09:28:06;;;;;;;;;;;27.10;94.50;;;;;;5050531;28;19987;-40
2023/06/23 09:30:34;;;;;;;;;;;27.20;93.80;;;;;;5048146;28;19932;-41
2023/06/23 09:33:01;;;;;;;;;;;27.20;95.10;;;;;;5050318;28;19964;-41
2023/06/23 09:35:27;;;;;;;;;;;27.30;94.40;;;;;;5050098;28;19990;-41
2023/06/23 09:37:54;;;;;;;;;;;27.40;95.10;;;;;;5050116;28;19929;-41
2023/06/23 09:40:25;;;;;;;;;;;27.50;94.70;;;;;;5049760;28;19948;-41
2023/06/23 09:42:55;;;;;;;;;;;27.60;94.40;;;;;;5032313;28;19925;-42
2023/06/23 09:45:23;;;;;;;;;;;27.60;94.40;;;;;;5031862;28;19929;-42
2023/06/23 09:47:51;;;;;;;;;;;27.70;93.90;;;;;;5032194;28;20379;-42
2023/06/23 09:50:18;;;;;;;;;;;27.70;92.60;;;;;;5049564;28;20447;-41
2023/06/23 09:52:45;;;;;;;;;;;27.70;93.20;;;;;;5032051;28;19932;-42
2023/06/23 09:55:11;;;;;;;;;;;27.90;92.70;;;;;;5032078;28;20288;-41
2023/06/23 09:57:38;;;;;;;;;;;28.00;92.90;;;;;;5031384;28;20019;-42
2023/06/23 10:00:08;;;;;;;;;;;28.10;91.10;;;;;;5031537;28;20375;-41
2023/06/23 10:02:36;;;;;;;;;;;28.10;91.30;;;;;;5049861;28;19931;-42
2023/06/23 10:05:05;;;;;;;;;;;28.20;91.70;;;;;;5048651;28;19925;-42
2023/06/23 10:07:32;;;;;;;;;;;28.30;92.10;;;;;;5053188;28;19931;-42
2023/06/23 10:09:59;;;;;;;;;;;28.40;90.90;;;;;;5053055;28;19970;-42
2023/06/23 10:12:26;;;;;;;;;;;28.50;91.20;;;;;;5035112;28;20355;-42
2023/06/23 10:14:53;;;;;;;;;;;28.60;89.90;;;;;;5052899;28;20408;-41
2023/06/23 10:17:20;;;;;;;;;;;28.60;90.30;;;;;;5052884;28;19925;-42
2023/06/23 10:19:47;;;;;;;;;;;28.60;89.90;;;;;;5062700;28;19933;-42
2023/06/23 10:22:15;;;;;;;;;;;28.70;86.00;;;;;;5073542;28;19931;-42
2023/06/23 10:24:42;;;;;;;;;;;28.70;89.60;;;;;;5074630;28;19970;-42
2023/06/23 10:27:09;;;;;;;;;;;28.80;89.50;;;;;;5056471;28;19924;-42
2023/06/23 10:29:35;;;;;;;;;;;29.00;90.30;;;;;;5074373;28;19975;-42
2023/06/23 10:32:02;;;;;;;;;;;29.20;90.10;;;;;;5074559;28;19978;-42
2023/06/23 10:34:29;;;;;;;;;;;29.20;88.90;;;;;;5074365;28;20346;-42
2023/06/23 10:36:57;;;;;;;;;;;29.20;86.80;;;;;;5059657;28;20309;-42
2023/06/23 10:39:26;;;;;;;;;;;29.20;87.50;;;;;;5053772;28;19964;-42
2023/06/23 10:41:53;;;;;;;;;;;29.20;88.60;;;;;;5035883;28;20022;-42
2023/06/23 10:44:20;;;;;;;;;;;29.30;84.90;;;;;;5036501;28;19929;-42
2023/06/23 10:46:46;;;;;;;;;;;29.30;84.20;;;;;;5036413;28;19972;-42
2023/06/23 10:49:13;;;;;;;;;;;29.30;86.00;;;;;;5053807;28;19954;-42
2023/06/23 10:51:39;;;;;;;;;;;29.30;85.40;;;;;;5052754;28;19929;-42
2023/06/23 10:54:07;;;;;;;;;;;29.30;84.60;;;;;;5053857;28;19971;-42
2023/06/23 10:56:36;;;;;;;;;;;29.30;85.10;;;;;;5040118;28;19951;-42
2023/06/23 10:59:17;;;;;;;;;;;29.40;85.80;;;;;;5054187;28;19929;-41
2023/06/23 11:01:58;;;;;;;;;;;29.30;84.10;;;;;;5053626;28;19932;-39
2023/06/23 11:04:25;;;;;;;;;;;29.30;84.40;;;;;;5033891;28;19978;-42
2023/06/23 11:07:01;;;;;;;;;;;29.40;85.30;;;;;;5053601;28;19972;-39
2023/06/23 11:09:43;;;;;;;;;;;29.50;84.10;;;;;;5053380;28;20314;-42
2023/06/23 11:12:25;;;;;;;;;;;29.60;85.30;;;;;;5047536;28;19971;-42
2023/06/23 11:14:53;;;;;;;;;;;29.80;83.90;;;;;;5035301;28;19956;-41
2023/06/23 11:17:21;;;;;;;;;;;29.90;82.70;;;;;;5033193;28;20316;-41
2023/06/23 11:19:50;;;;;;;;;;;30.00;78.50;;;;;;5068572;28;19986;-42
2023/06/23 11:22:20;;;;;;;;;;;30.00;78.30;;;;;;5054051;28;20511;-40
2023/06/23 11:24:51;;;;;;;;;;;30.00;80.60;;;;;;5035931;28;19986;-42
2023/06/23 11:27:18;;;;;;;;;;;30.00;79.80;;;;;;5053647;28;19972;-41
2023/06/23 11:29:55;;;;;;;;;;;30.10;79.30;;;;;;5052507;28;19929;-42
2023/06/23 11:32:25;;;;;;;;;;;30.10;80.50;;;;;;5034725;28;20217;-42
2023/06/23 11:34:52;;;;;;;;;;;30.20;76.90;;;;;;5035762;28;19978;-42
2023/06/23 11:37:19;;;;;;;;;;;30.20;78.50;;;;;;5035711;28;19975;-42
2023/06/23 11:39:46;;;;;;;;;;;30.30;78.50;;;;;;5051866;28;19951;-41
2023/06/23 11:42:12;;;;;;;;;;;30.40;78.80;;;;;;5035184;28;20399;-43
2023/06/23 11:44:39;;;;;;;;;;;30.40;77.50;;;;;;5035327;28;19999;-42
2023/06/23 11:47:07;;;;;;;;;;;30.40;77.00;;;;;;5052886;28;20395;-42
2023/06/23 11:49:35;;;;;;;;;;;30.40;78.60;;;;;;5051116;28;20434;-42
2023/06/23 11:52:02;;;;;;;;;;;30.40;77.10;;;;;;5053079;28;19924;-43
2023/06/23 11:54:30;;;;;;;;;;;30.40;76.40;;;;;;5052789;28;19932;-42
2023/06/23 11:56:58;;;;;;;;;;;30.50;76.30;;;;;;5052659;28;19986;-42
2023/06/23 11:59:25;;;;;;;;;;;30.70;76.80;;;;;;5032115;28;19976;-45
2023/06/23 12:01:51;;;;;;;;;;;30.70;77.90;;;;;;5034703;28;19970;-42
2023/06/23 12:04:23;;;;;;;;;;;30.80;72.80;;;;;;5055079;28;19925;-42
2023/06/23 12:06:51;;;;;;;;;;;30.80;73.50;;;;;;5052559;28;19925;-43
2023/06/23 12:09:20;;;;;;;;;;;30.90;73.50;;;;;;5026286;28;19925;-42
2023/06/23 12:11:46;;;;;;;;;;;31.00;75.40;;;;;;5031822;28;20306;-42
2023/06/23 12:14:13;;;;;;;;;;;31.10;75.10;;;;;;5039414;28;20371;-42
2023/06/23 12:16:40;;;;;;;;;;;31.30;70.80;;;;;;5033576;28;19982;-43
2023/06/23 12:19:06;;;;;;;;;;;31.30;69.60;;;;;;5040685;28;20288;-43
2023/06/23 12:21:36;;;;;;;;;;;31.10;68.60;;;;;;5051173;28;19970;-44
2023/06/23 12:24:02;;;;;;;;;;;31.10;69.40;;;;;;5046595;28;19929;-43
2023/06/23 12:26:29;;;;;;;;;;;31.20;70.80;;;;;;5044612;28;19928;-43
2023/06/23 12:29:08;;;;;;;;;;;31.30;69.70;;;;;;5050346;28;19968;-43
2023/06/23 12:31:34;;;;;;;;;;;31.30;69.40;;;;;;5033268;28;19925;-43
2023/06/23 12:34:01;;;;;;;;;;;31.40;70.80;;;;;;5024084;28;20127;-43
2023/06/23 12:36:28;;;;;;;;;;;31.50;70.50;;;;;;5015295;28;19925;-42
2023/06/23 12:38:56;;;;;;;;;;;31.60;69.20;;;;;;5021131;28;20419;-44
2023/06/23 12:41:23;;;;;;;;;;;31.60;67.00;;;;;;5023166;28;19936;-44
2023/06/23 12:43:50;;;;;;;;;;;31.60;69.40;;;;;;5028304;28;19925;-43
2023/06/23 12:46:17;;;;;;;;;;;31.70;68.60;;;;;;5032867;28;19924;-40
2023/06/23 12:48:44;;;;;;;;;;;31.70;66.80;;;;;;5034470;28;19978;-44
2023/06/23 12:51:10;;;;;;;;;;;31.70;67.00;;;;;;5033226;28;20008;-44
2023/06/23 12:53:37;;;;;;;;;;;31.60;66.50;;;;;;5033419;28;19970;-43
2023/06/23 12:56:05;;;;;;;;;;;31.60;67.20;;;;;;5034329;28;20369;-43
2023/06/23 12:58:32;;;;;;;;;;;31.50;67.50;;;;;;5032119;28;20442;-44
2023/06/23 13:01:02;;;;;;;;;;;31.60;67.90;;;;;;5034296;28;19928;-44
2023/06/23 13:03:29;;;;;;;;;;;31.70;69.50;;;;;;5052080;28;19931;-43
2023/06/23 13:05:56;;;;;;;;;;;31.90;67.30;;;;;;5031900;28;19925;-43
2023/06/23 13:08:23;;;;;;;;;;;32.00;65.80;;;;;;5041946;28;19925;-43
2023/06/23 13:10:50;;;;;;;;;;;32.00;67.40;;;;;;5050579;28;19955;-40
2023/06/23 13:13:18;;;;;;;;;;;31.90;66.40;;;;;;5040471;28;19936;-42
2023/06/23 13:15:46;;;;;;;;;;;31.80;66.50;;;;;;5019366;28;19936;-43
2023/06/23 13:18:13;;;;;;;;;;;31.90;65.50;;;;;;5021601;28;20371;-43
2023/06/23 13:20:40;;;;;;;;;;;31.80;67.80;;;;;;5031471;28;19929;-41
2023/06/23 13:23:07;;;;;;;;;;;31.90;66.00;;;;;;5038683;28;20392;-43
2023/06/23 13:25:34;;;;;;;;;;;32.00;67.70;;;;;;5031730;28;19925;-43
2023/06/23 13:28:00;;;;;;;;;;;32.00;66.00;;;;;;5031636;28;20432;-43
2023/06/23 13:30:28;;;;;;;;;;;32.00;66.30;;;;;;5050406;28;20331;-43
2023/06/23 13:32:55;;;;;;;;;;;32.00;65.60;;;;;;5048687;28;19929;-42
2023/06/23 13:35:23;;;;;;;;;;;32.00;66.30;;;;;;5049595;28;19924;-44
2023/06/23 13:37:49;;;;;;;;;;;32.00;65.60;;;;;;5051247;28;20307;-43
2023/06/23 13:40:16;;;;;;;;;;;32.00;63.70;;;;;;5046696;28;20343;-40
2023/06/23 13:42:44;;;;;;;;;;;31.90;66.60;;;;;;5052533;28;19924;-41
2023/06/23 13:45:10;;;;;;;;;;;32.00;67.90;;;;;;5034543;28;19955;-43
2023/06/23 13:47:38;;;;;;;;;;;32.20;63.50;;;;;;5054934;28;19924;-42
2023/06/23 13:50:11;;;;;;;;;;;32.20;64.70;;;;;;5054793;28;19925;-43
2023/06/23 13:52:38;;;;;;;;;;;32.20;62.50;;;;;;5037275;28;19925;-42
2023/06/23 13:55:06;;;;;;;;;;;32.10;64.50;;;;;;5053885;28;20391;-42
2023/06/23 13:57:33;;;;;;;;;;;32.00;64.10;;;;;;5036249;28;19932;-43
2023/06/23 14:00:00;;;;;;;;;;;31.90;62.80;;;;;;5052595;28;19925;-41
2023/06/23 14:02:28;;;;;;;;;;;31.90;64.90;;;;;;5035665;28;20458;-42
2023/06/23 14:04:56;;;;;;;;;;;31.90;63.90;;;;;;5034934;28;19925;-42
2023/06/23 14:07:23;;;;;;;;;;;31.80;65.00;;;;;;5054016;28;19979;-43
2023/06/23 14:09:50;;;;;;;;;;;31.70;62.80;;;;;;5053710;28;19929;-43
2023/06/23 14:12:16;;;;;;;;;;;31.60;62.10;;;;;;5034819;28;19984;-42
2023/06/23 14:14:43;;;;;;;;;;;31.50;63.60;;;;;;5037518;28;20482;-43
2023/06/23 14:17:10;;;;;;;;;;;31.40;62.40;;;;;;5044669;28;19948;-43